createdAt,value
2017-07-19T00:01:24.326Z,21.11
2017-07-19T00:03:55.953Z,20.92
2017-07-19T00:06:27.471Z,20.81
2017-07-19T00:09:01.334Z,20.61
2017-07-19T00:11:33.602Z,20.48
2017-07-19T00:14:06.744Z,20.21
2017-07-19T00:16:38.293Z,20.87
2017-07-19T00:19:10.038Z,20.69
2017-07-19T00:21:41.784Z,20.78
2017-07-19T00:24:13.912Z,20.68
2017-07-19T00:26:46.522Z,20.33
2017-07-19T00:29:17.815Z,20.54
2017-07-19T00:31:49.087Z,20.14
2017-07-19T00:34:20.983Z,20.42
2017-07-19T00:36:52.933Z,20.27
2017-07-19T00:39:24.566Z,20.45
2017-07-19T00:41:56.812Z,20.71
2017-07-19T00:44:28.242Z,21.03
2017-07-19T00:47:01.886Z,20.73
2017-07-19T00:49:33.238Z,21.19
2017-07-19T00:52:06.390Z,21.05
2017-07-19T00:54:38.020Z,20.71
2017-07-19T00:57:09.574Z,20.99
2017-07-19T00:59:41.077Z,20.81
2017-07-19T01:02:13.123Z,20.62
2017-07-19T01:04:44.920Z,20.31
2017-07-19T01:07:16.813Z,20.31
2017-07-19T01:09:48.511Z,20.24
2017-07-19T01:12:20.169Z,20.36
2017-07-19T01:14:52.256Z,19.17
2017-07-19T01:17:23.946Z,19.52
2017-07-19T01:19:55.916Z,20.47
2017-07-19T01:22:28.244Z,20.96
2017-07-19T01:25:03.381Z,20.86
2017-07-19T01:27:45.651Z,20.45
2017-07-19T01:30:33.016Z,20.33
2017-07-19T01:33:07.475Z,19.95
2017-07-19T01:35:39.789Z,19.95
2017-07-19T01:38:11.613Z,20.37
2017-07-19T01:40:42.937Z,20.27
2017-07-19T01:43:16.202Z,20.15
2017-07-19T01:45:47.632Z,20.12
2017-07-19T01:48:20.178Z,20.05
2017-07-19T01:50:52.434Z,20.43
2017-07-19T01:53:24.868Z,20.33
2017-07-19T01:55:56.375Z,20.29
2017-07-19T01:58:28.187Z,19.98
2017-07-19T02:01:02.205Z,20.43
2017-07-19T02:03:34.103Z,20.39
2017-07-19T02:06:07.710Z,20.24
2017-07-19T02:08:39.229Z,20.74
2017-07-19T02:11:10.787Z,19.97
2017-07-19T02:13:42.252Z,19.57
2017-07-19T02:16:15.626Z,19.86
2017-07-19T02:18:48.388Z,20.06
2017-07-19T02:21:20.320Z,20.32
2017-07-19T02:23:52.100Z,20.36
2017-07-19T02:26:23.502Z,20.46
2017-07-19T02:28:55.277Z,19.87
2017-07-19T02:31:26.997Z,20.25
2017-07-19T02:33:59.205Z,19.82
2017-07-19T02:36:32.118Z,19.46
2017-07-19T02:39:06.376Z,19.41
2017-07-19T02:41:37.870Z,19.40
2017-07-19T02:44:09.618Z,19.58
2017-07-19T02:46:41.115Z,19.56
2017-07-19T02:49:12.269Z,19.90
2017-07-19T02:51:44.104Z,20.09
2017-07-19T02:54:15.441Z,20.22
2017-07-19T02:56:46.918Z,20.18
2017-07-19T02:59:18.742Z,19.77
2017-07-19T03:01:50.197Z,19.54
2017-07-19T03:04:22.196Z,19.89
2017-07-19T03:06:53.689Z,19.20
2017-07-19T03:09:25.049Z,19.16
2017-07-19T03:11:56.432Z,18.78
2017-07-19T03:14:28.141Z,19.46
2017-07-19T03:17:00.684Z,19.89
2017-07-19T03:19:31.832Z,19.46
2017-07-19T03:22:06.232Z,19.61
2017-07-19T03:24:37.625Z,19.75
2017-07-19T03:27:09.064Z,18.78
2017-07-19T03:29:41.159Z,18.45
2017-07-19T03:32:13.128Z,19.10
2017-07-19T03:34:44.511Z,19.78
2017-07-19T03:37:16.319Z,19.47
2017-07-19T03:39:47.664Z,19.74
2017-07-19T03:42:19.193Z,19.71
2017-07-19T03:44:51.342Z,19.46
2017-07-19T03:47:22.980Z,19.58
2017-07-19T03:49:54.298Z,19.88
2017-07-19T03:52:26.336Z,19.75
2017-07-19T03:54:57.716Z,18.89
2017-07-19T03:57:29.072Z,19.28
2017-07-19T04:00:03.405Z,19.72
2017-07-19T04:02:34.858Z,20.28
2017-07-19T04:05:28.288Z,20.09
2017-07-19T04:08:01.652Z,19.80
2017-07-19T04:10:33.013Z,20.08
2017-07-19T04:13:06.253Z,20.37
2017-07-19T04:15:37.797Z,19.87
2017-07-19T04:18:09.397Z,19.53
2017-07-19T04:20:41.112Z,19.75
2017-07-19T04:23:12.265Z,19.56
2017-07-19T04:25:44.865Z,19.86
2017-07-19T04:28:21.920Z,20.58
2017-07-19T04:30:53.866Z,20.47
2017-07-19T04:33:25.620Z,20.72
2017-07-19T04:35:57.608Z,20.44
2017-07-19T04:38:29.264Z,20.65
2017-07-19T04:41:02.419Z,21.08
2017-07-19T04:43:34.440Z,21.15
2017-07-19T04:46:06.843Z,20.87
2017-07-19T04:48:38.293Z,21.29
2017-07-19T04:51:10.279Z,21.55
2017-07-19T04:53:41.848Z,21.65
2017-07-19T04:56:13.882Z,22.04
2017-07-19T04:58:47.875Z,21.97
2017-07-19T05:01:20.733Z,21.56
2017-07-19T05:03:54.492Z,21.76
2017-07-19T05:06:26.730Z,21.97
2017-07-19T05:08:59.708Z,22.35
2017-07-19T05:11:32.161Z,22.44
2017-07-19T05:14:06.194Z,22.37
2017-07-19T05:16:39.374Z,22.37
2017-07-19T05:19:10.768Z,21.53
2017-07-19T05:21:42.988Z,21.18
2017-07-19T05:24:15.571Z,21.75
2017-07-19T05:26:47.532Z,22.66
2017-07-19T05:29:19.303Z,23.19
2017-07-19T05:31:51.596Z,22.09
2017-07-19T05:34:23.430Z,21.22
2017-07-19T05:36:54.929Z,21.58
2017-07-19T05:39:27.203Z,22.66
2017-07-19T05:42:02.284Z,22.66
2017-07-19T05:44:34.607Z,22.80
2017-07-19T05:47:06.837Z,22.82
2017-07-19T05:49:38.402Z,23.66
2017-07-19T05:52:10.211Z,24.65
2017-07-19T05:54:41.585Z,26.03
2017-07-19T05:57:13.331Z,27.12
2017-07-19T05:59:44.612Z,27.94
2017-07-19T06:02:16.220Z,28.34
2017-07-19T06:04:47.729Z,28.90
2017-07-19T06:07:19.085Z,29.67
2017-07-19T06:09:50.719Z,29.74
2017-07-19T06:12:24.153Z,29.95
2017-07-19T06:14:55.774Z,30.35
2017-07-19T06:17:27.707Z,30.54
2017-07-19T06:20:01.373Z,30.71
2017-07-19T06:22:32.686Z,30.49
2017-07-19T06:25:10.481Z,30.47
2017-07-19T06:27:42.437Z,31.05
2017-07-19T06:30:14.120Z,31.75
2017-07-19T06:32:45.934Z,31.15
2017-07-19T06:35:17.297Z,31.70
2017-07-19T06:37:48.752Z,30.98
2017-07-19T06:40:20.600Z,31.32
2017-07-19T06:42:51.957Z,31.32
2017-07-19T06:45:23.503Z,31.53
2017-07-19T06:47:54.938Z,32.01
2017-07-19T06:50:26.268Z,32.12
2017-07-19T06:52:57.687Z,32.18
2017-07-19T06:55:28.911Z,31.94
2017-07-19T06:58:03.119Z,31.83
2017-07-19T07:00:34.948Z,30.96
2017-07-19T07:03:07.729Z,31.40
2017-07-19T07:05:39.564Z,32.04
2017-07-19T07:08:12.142Z,32.97
2017-07-19T07:10:46.861Z,32.22
2017-07-19T07:13:20.028Z,32.44
2017-07-19T07:15:53.659Z,31.53
2017-07-19T07:18:26.070Z,31.93
2017-07-19T07:20:58.359Z,32.37
2017-07-19T07:23:29.947Z,32.88
2017-07-19T07:26:02.795Z,32.68
2017-07-19T07:28:35.569Z,32.77
2017-07-19T07:31:06.979Z,34.10
2017-07-19T07:33:39.161Z,34.20
2017-07-19T07:36:11.825Z,34.62
2017-07-19T07:38:43.346Z,34.86
2017-07-19T07:41:15.876Z,35.02
2017-07-19T07:43:47.248Z,36.03
2017-07-19T07:46:19.248Z,35.55
2017-07-19T07:48:50.802Z,35.00
2017-07-19T07:51:22.398Z,35.60
2017-07-19T07:53:53.448Z,36.36
2017-07-19T07:56:26.200Z,37.14
2017-07-19T07:58:58.358Z,36.60
2017-07-19T08:01:30.217Z,37.37
2017-07-19T08:04:04.459Z,36.61
2017-07-19T08:06:36.225Z,35.08
2017-07-19T08:09:07.920Z,34.66
2017-07-19T08:11:39.313Z,35.22
2017-07-19T08:14:12.400Z,36.71
2017-07-19T08:16:45.823Z,37.20
2017-07-19T08:19:19.950Z,37.66
2017-07-19T08:21:52.422Z,35.70
2017-07-19T08:24:23.664Z,36.70
2017-07-19T08:26:54.931Z,37.44
2017-07-19T08:29:26.961Z,37.61
2017-07-19T08:32:00.763Z,37.75
2017-07-19T08:34:32.207Z,38.36
2017-07-19T08:37:06.394Z,38.72
2017-07-19T08:39:37.784Z,39.98
2017-07-19T08:42:09.537Z,39.34
2017-07-19T08:44:41.624Z,39.89
2017-07-19T08:47:13.059Z,40.25
2017-07-19T08:49:45.132Z,40.40
2017-07-19T08:52:17.198Z,40.47
2017-07-19T08:54:48.732Z,40.29
2017-07-19T08:58:43.718Z,40.80
2017-07-19T09:01:15.199Z,39.78
2017-07-19T09:03:46.618Z,40.01
2017-07-19T09:06:18.206Z,40.11
2017-07-19T09:08:49.687Z,40.44
2017-07-19T09:11:21.939Z,41.05
2017-07-19T09:13:57.985Z,40.34
2017-07-19T09:16:29.289Z,41.11
2017-07-19T09:19:03.307Z,40.98
2017-07-19T09:21:35.106Z,40.86
2017-07-19T09:24:06.709Z,41.62
2017-07-19T09:26:38.093Z,40.78
2017-07-19T09:29:09.670Z,40.49
2017-07-19T09:31:41.073Z,40.19
2017-07-19T09:34:12.389Z,41.16
2017-07-19T09:36:43.884Z,41.81
2017-07-19T09:39:15.140Z,41.59
2017-07-19T09:41:46.649Z,41.23
2017-07-19T09:44:18.123Z,40.84
2017-07-19T09:46:49.432Z,41.17
2017-07-19T09:49:37.652Z,42.31
2017-07-19T09:52:08.910Z,42.84
2017-07-19T09:54:41.041Z,42.29
2017-07-19T09:57:12.251Z,42.72
2017-07-19T09:59:43.495Z,41.77
2017-07-19T10:02:15.655Z,41.92
2017-07-19T10:04:47.090Z,42.20
2017-07-19T10:07:18.238Z,41.71
2017-07-19T10:09:50.291Z,41.36
2017-07-19T10:12:21.952Z,39.89
2017-07-19T10:14:53.260Z,40.15
2017-07-19T10:17:27.087Z,39.51
2017-07-19T10:20:01.609Z,38.97
2017-07-19T10:22:33.685Z,38.48
2017-07-19T10:25:08.543Z,38.92
2017-07-19T10:27:39.932Z,41.17
2017-07-19T10:30:11.664Z,41.04
2017-07-19T10:32:43.010Z,40.76
2017-07-19T10:35:18.997Z,39.84
2017-07-19T10:37:52.087Z,39.38
2017-07-19T10:40:24.274Z,40.26
2017-07-19T10:42:55.621Z,39.93
2017-07-19T10:45:28.506Z,40.90
2017-07-19T10:48:03.349Z,41.79
2017-07-19T10:50:35.948Z,41.60
2017-07-19T10:53:07.483Z,40.42
2017-07-19T10:55:38.710Z,41.08
2017-07-19T10:58:10.299Z,40.82
2017-07-19T11:00:41.495Z,40.18
2017-07-19T11:03:13.066Z,38.72
2017-07-19T11:05:45.014Z,39.05
2017-07-19T11:08:17.136Z,40.54
2017-07-19T11:10:48.495Z,41.37
2017-07-19T11:13:20.342Z,42.15
2017-07-19T11:15:51.758Z,41.61
2017-07-19T11:18:23.121Z,39.67
2017-07-19T11:20:54.691Z,38.65
2017-07-19T11:23:26.030Z,38.11
2017-07-19T11:25:57.615Z,39.04
2017-07-19T11:28:29.139Z,40.62
2017-07-19T11:31:02.380Z,41.50
2017-07-19T11:33:34.085Z,42.77
2017-07-19T11:36:06.649Z,40.82
2017-07-19T11:38:38.525Z,39.42
2017-07-19T11:41:09.946Z,40.25
2017-07-19T11:43:43.386Z,42.13
2017-07-19T11:46:15.405Z,42.61
2017-07-19T11:48:47.021Z,41.64
2017-07-19T11:51:18.804Z,40.77
2017-07-19T11:53:50.293Z,39.91
2017-07-19T11:56:22.510Z,40.71
2017-07-19T11:58:54.388Z,41.31
2017-07-19T12:01:25.977Z,41.56
2017-07-19T12:04:04.707Z,40.63
2017-07-19T12:06:36.445Z,40.55
2017-07-19T12:09:08.204Z,40.78
2017-07-19T12:11:40.351Z,40.50
2017-07-19T12:14:11.681Z,40.04
2017-07-19T12:16:43.506Z,39.53
2017-07-19T12:19:14.771Z,40.13
2017-07-19T12:21:46.002Z,41.28
2017-07-19T12:24:17.142Z,40.52
2017-07-19T12:26:48.315Z,39.65
2017-07-19T12:29:20.366Z,39.29
2017-07-19T12:31:51.595Z,37.58
2017-07-19T12:34:23.108Z,37.73
2017-07-19T12:36:54.633Z,38.16
2017-07-19T12:39:25.893Z,37.49
2017-07-19T12:41:58.286Z,36.39
2017-07-19T12:44:29.462Z,36.82
2017-07-19T12:47:04.694Z,38.64
2017-07-19T12:49:36.386Z,40.36
2017-07-19T12:52:07.717Z,39.31
2017-07-19T12:54:39.629Z,39.49
2017-07-19T12:57:11.617Z,39.34
2017-07-19T12:59:43.193Z,38.11
2017-07-19T13:02:14.450Z,36.64
2017-07-19T13:04:46.209Z,36.26
2017-07-19T13:07:17.728Z,37.45
2017-07-19T13:09:49.354Z,38.18
2017-07-19T13:12:20.616Z,39.64
2017-07-19T13:14:52.919Z,41.85
2017-07-19T13:17:24.903Z,43.03
2017-07-19T13:19:56.389Z,41.16
2017-07-19T13:22:28.051Z,37.42
2017-07-19T13:25:01.178Z,39.07
2017-07-19T13:27:32.555Z,41.04
2017-07-19T13:30:05.952Z,41.44
2017-07-19T13:32:37.524Z,39.92
2017-07-19T13:35:10.034Z,38.69
2017-07-19T13:37:41.343Z,37.20
2017-07-19T13:40:13.600Z,36.40
2017-07-19T13:42:45.191Z,36.99
2017-07-19T13:45:16.691Z,38.83
2017-07-19T13:47:48.151Z,40.81
2017-07-19T13:50:19.703Z,40.88
2017-07-19T13:52:50.886Z,40.88
2017-07-19T13:55:22.647Z,41.56
2017-07-19T13:57:54.598Z,41.79
2017-07-19T14:00:26.032Z,41.22
2017-07-19T14:02:57.773Z,40.78
2017-07-19T14:05:29.159Z,41.38
2017-07-19T14:08:02.663Z,39.69
2017-07-19T14:10:34.704Z,40.57
2017-07-19T14:13:06.724Z,41.92
2017-07-19T14:15:37.996Z,40.91
2017-07-19T14:18:10.059Z,39.54
2017-07-19T14:20:41.514Z,37.89
2017-07-19T14:23:12.917Z,36.90
2017-07-19T14:25:44.717Z,37.84
2017-07-19T14:28:15.892Z,38.82
2017-07-19T14:30:47.225Z,40.29
2017-07-19T14:33:18.624Z,42.43
2017-07-19T14:35:51.000Z,44.00
2017-07-19T14:38:23.964Z,43.68
2017-07-19T14:40:55.397Z,41.26
2017-07-19T14:43:27.706Z,39.91
2017-07-19T14:46:00.737Z,38.28
2017-07-19T14:48:32.627Z,38.06
2017-07-19T14:51:05.181Z,38.40
2017-07-19T14:53:37.091Z,39.76
2017-07-19T14:56:08.965Z,40.96
2017-07-19T14:58:50.476Z,41.96
2017-07-19T15:01:22.953Z,42.58
2017-07-19T15:03:54.668Z,41.75
2017-07-19T15:06:26.193Z,40.53
2017-07-19T15:08:57.472Z,39.37
2017-07-19T15:11:29.185Z,39.40
2017-07-19T15:14:03.332Z,39.34
2017-07-19T15:16:34.774Z,39.67
2017-07-19T15:19:07.600Z,40.21
2017-07-19T15:21:39.206Z,42.03
2017-07-19T15:24:11.170Z,43.13
2017-07-19T15:26:42.482Z,43.18
2017-07-19T15:29:14.552Z,42.35
2017-07-19T15:31:46.056Z,41.74
2017-07-19T15:34:17.272Z,39.82
2017-07-19T15:36:48.469Z,38.03
2017-07-19T15:39:19.994Z,37.40
2017-07-19T15:41:51.609Z,37.92
2017-07-19T15:44:23.625Z,37.94
2017-07-19T15:46:55.112Z,37.78
2017-07-19T15:49:26.521Z,37.08
2017-07-19T15:51:58.034Z,36.36
2017-07-19T15:54:29.928Z,36.10
2017-07-19T15:57:03.151Z,35.90
2017-07-19T15:59:35.403Z,35.90
2017-07-19T16:02:07.159Z,35.26
2017-07-19T16:04:38.466Z,35.85
2017-07-19T16:07:11.067Z,36.92
2017-07-19T16:09:42.312Z,38.03
2017-07-19T16:12:13.846Z,38.67
2017-07-19T16:14:45.785Z,38.35
2017-07-19T16:17:17.316Z,38.35
2017-07-19T16:19:48.980Z,38.62
2017-07-19T16:22:20.565Z,38.31
2017-07-19T16:24:52.148Z,38.10
2017-07-19T16:27:24.518Z,37.20
2017-07-19T16:29:55.976Z,37.30
2017-07-19T16:32:27.493Z,36.90
2017-07-19T16:35:01.385Z,37.22
2017-07-19T16:37:33.677Z,37.17
2017-07-19T16:40:07.724Z,36.68
2017-07-19T16:42:39.117Z,36.44
2017-07-19T16:45:10.826Z,36.34
2017-07-19T16:47:42.573Z,36.12
2017-07-19T16:50:15.847Z,36.28
2017-07-19T16:52:47.299Z,36.33
2017-07-19T16:55:19.851Z,36.72
2017-07-19T16:57:50.984Z,36.40
2017-07-19T17:00:23.208Z,35.81
2017-07-19T17:02:54.882Z,35.64
2017-07-19T17:05:26.575Z,35.51
2017-07-19T17:07:57.839Z,35.44
2017-07-19T17:10:29.437Z,35.08
2017-07-19T17:13:03.558Z,34.96
2017-07-19T17:15:35.205Z,34.98
2017-07-19T17:18:06.736Z,34.75
2017-07-19T17:20:38.736Z,34.45
2017-07-19T17:23:11.042Z,34.40
2017-07-19T17:25:44.029Z,34.41
2017-07-19T17:28:15.766Z,34.37
2017-07-19T17:30:47.502Z,34.37
2017-07-19T17:33:19.891Z,34.37
2017-07-19T17:35:53.058Z,34.52
2017-07-19T17:38:25.994Z,34.40
2017-07-19T17:40:57.867Z,34.56
2017-07-19T17:43:29.229Z,33.84
2017-07-19T17:46:03.208Z,33.47
2017-07-19T17:48:34.539Z,33.09
2017-07-19T17:51:07.095Z,32.73
2017-07-19T17:53:38.358Z,32.84
2017-07-19T17:56:16.597Z,32.72
2017-07-19T17:58:48.606Z,32.98
2017-07-19T18:01:19.912Z,32.80
2017-07-19T18:03:51.128Z,32.85
2017-07-19T18:06:22.682Z,31.96
2017-07-19T18:08:54.293Z,32.43
2017-07-19T18:11:26.700Z,32.31
2017-07-19T18:13:58.030Z,32.04
2017-07-19T18:16:32.472Z,31.87
2017-07-19T18:19:06.426Z,31.86
2017-07-19T18:21:38.301Z,31.82
2017-07-19T18:24:09.921Z,31.91
2017-07-19T18:26:41.289Z,31.75
2017-07-19T18:29:12.508Z,31.59
2017-07-19T18:31:45.211Z,31.08
2017-07-19T18:34:16.614Z,30.45
2017-07-19T18:36:48.378Z,31.02
2017-07-19T18:39:19.862Z,31.20
2017-07-19T18:41:52.538Z,31.40
2017-07-19T18:44:24.637Z,31.54
2017-07-19T18:46:57.066Z,31.64
2017-07-19T18:49:28.808Z,31.68
2017-07-19T18:52:02.446Z,32.08
2017-07-19T18:54:33.981Z,31.72
2017-07-19T18:57:08.697Z,31.72
2017-07-19T18:59:41.346Z,31.65
2017-07-19T19:02:15.762Z,31.54
2017-07-19T19:04:47.116Z,31.37
2017-07-19T19:07:21.416Z,30.95
2017-07-19T19:09:53.027Z,30.95
2017-07-19T19:12:24.669Z,30.82
2017-07-19T19:14:57.867Z,30.63
2017-07-19T19:17:30.155Z,30.53
2017-07-19T19:20:05.115Z,29.01
2017-07-19T19:22:36.715Z,28.18
2017-07-19T19:25:08.354Z,25.81
2017-07-19T19:27:40.611Z,26.24
2017-07-19T19:30:42.458Z,26.23
2017-07-19T19:33:14.281Z,25.86
2017-07-19T19:35:46.116Z,25.85
2017-07-19T19:38:17.698Z,25.65
2017-07-19T19:40:49.334Z,25.02
2017-07-19T19:43:25.575Z,23.86
2017-07-19T19:45:58.026Z,22.78
2017-07-19T19:48:29.968Z,21.68
2017-07-19T19:51:01.324Z,20.72
2017-07-19T19:53:33.355Z,20.14
2017-07-19T19:56:05.395Z,19.82
2017-07-19T19:58:37.758Z,19.95
2017-07-19T20:01:10.473Z,20.27
2017-07-19T20:03:43.456Z,20.59
2017-07-19T20:06:15.490Z,20.62
2017-07-19T20:08:47.432Z,20.78
2017-07-19T20:11:22.769Z,20.22
2017-07-19T20:13:54.325Z,20.22
2017-07-19T20:16:27.104Z,20.22
2017-07-19T20:18:59.330Z,20.65
2017-07-19T20:21:30.814Z,20.62
2017-07-19T20:24:02.442Z,21.03
2017-07-19T20:26:33.847Z,21.09
2017-07-19T20:29:06.279Z,20.99
2017-07-19T20:31:42.049Z,21.02
2017-07-19T20:34:13.466Z,20.98
2017-07-19T20:36:46.132Z,21.22
2017-07-19T20:39:17.379Z,20.95
2017-07-19T20:41:48.955Z,21.06
2017-07-19T20:44:20.676Z,21.27
2017-07-19T20:46:52.574Z,21.39
2017-07-19T20:49:24.774Z,20.82
2017-07-19T20:51:56.409Z,20.90
2017-07-19T20:54:27.590Z,20.84
2017-07-19T20:56:58.859Z,20.93
2017-07-19T20:59:30.381Z,21.08
2017-07-19T21:02:01.623Z,21.34
2017-07-19T21:04:33.632Z,21.05
2017-07-19T21:07:05.136Z,21.17
2017-07-19T21:09:36.477Z,21.17
2017-07-19T21:12:08.304Z,20.92
2017-07-19T21:14:39.754Z,20.69
2017-07-19T21:17:11.226Z,20.65
2017-07-19T21:19:43.781Z,21.07
2017-07-19T21:22:15.675Z,19.76
2017-07-19T21:24:47.323Z,19.91
2017-07-19T21:27:18.656Z,20.29
2017-07-19T21:29:49.890Z,20.16
2017-07-19T21:32:21.548Z,20.68
2017-07-19T21:34:53.599Z,21.19
2017-07-19T21:37:24.927Z,21.64
2017-07-19T21:39:56.149Z,21.00
2017-07-19T21:42:27.752Z,20.63
2017-07-19T21:44:59.408Z,20.60
2017-07-19T21:47:31.212Z,20.42
2017-07-19T21:50:02.756Z,20.75
2017-07-19T21:52:34.531Z,21.18
2017-07-19T21:55:05.839Z,20.94
2017-07-19T21:57:37.616Z,21.38
2017-07-19T22:00:08.941Z,21.92
2017-07-19T22:02:40.330Z,21.68
2017-07-19T22:05:12.050Z,20.91
2017-07-19T22:07:43.429Z,20.67
2017-07-19T22:10:15.588Z,20.83
2017-07-19T22:12:48.146Z,20.46
2017-07-19T22:15:19.708Z,20.33
2017-07-19T22:17:51.487Z,20.16
2017-07-19T22:20:22.695Z,20.31
2017-07-19T22:22:54.513Z,20.41
2017-07-19T22:25:26.368Z,20.31
2017-07-19T22:27:58.033Z,20.13
2017-07-19T22:30:29.314Z,20.13
2017-07-19T22:33:01.344Z,19.96
2017-07-19T22:35:32.967Z,19.96
2017-07-19T22:38:04.570Z,19.92
2017-07-19T22:40:36.779Z,20.09
2017-07-19T22:43:08.548Z,19.90
2017-07-19T22:45:39.966Z,19.90
2017-07-19T22:48:12.045Z,19.88
2017-07-19T22:50:44.615Z,19.70
2017-07-19T22:53:16.355Z,19.73
2017-07-19T22:55:47.947Z,19.78
2017-07-19T22:58:20.456Z,19.82
2017-07-19T23:00:52.180Z,19.94
2017-07-19T23:03:23.708Z,20.02
2017-07-19T23:05:55.264Z,19.97
2017-07-19T23:08:26.704Z,20.11
2017-07-19T23:10:58.041Z,20.12
2017-07-19T23:13:30.556Z,19.96
2017-07-19T23:16:02.168Z,19.95
2017-07-19T23:18:33.857Z,19.85
2017-07-19T23:21:06.113Z,19.92
2017-07-19T23:23:37.703Z,19.87
2017-07-19T23:26:09.311Z,20.03
2017-07-19T23:28:40.736Z,20.12
2017-07-19T23:31:12.197Z,20.16
2017-07-19T23:33:44.082Z,20.20
2017-07-19T23:36:16.045Z,20.38
2017-07-19T23:38:47.219Z,20.30
2017-07-19T23:41:19.263Z,19.94
2017-07-19T23:43:50.457Z,20.42
2017-07-19T23:46:22.361Z,20.42
2017-07-19T23:48:55.381Z,20.67
2017-07-19T23:51:26.735Z,20.57
2017-07-19T23:53:58.287Z,20.61
2017-07-19T23:56:30.629Z,20.83
2017-07-19T23:59:02.990Z,20.93
